Portada
METAR-TAF:

METAR-TAF

Aeroports :

Iași, Romania

latitud: 47-10N, longitud: 027-38E, altitud: 102 m

Observació

L'informe es va fer fa 37 minuts, a les 19:00 UTC
Vent 5 kt del Nord-Oest
Temperatura 12°C
Humitat 28%
Pressió 1006 hPa
Visibilitat 10 km o més
sense núvols per sota de 1500 mi sense presència de cumulonimbus.

METAR: LRIA 291900Z 31005KT CAVOK 12/M06 Q1006

Hora: 22:37 (19:37 UTC)

Pronòstic

L'informe es va fer fa 2 hores i 37 minuts, a les 17:00 UTC
Pronòstic vàlid del 29 a les 18 UTC al 30 a les 03 UTC
Vent 10 kt del Nord-Oest
Visibilitat 10 km o més
sense núvols per sota de 1500 mi sense presència de cumulonimbus.

TAF: LRIA 291700Z 2918/3003 31010KT CAVOK

Observacions i pronòstics meteorològics de més de 4000 aeroports (METAR i TAF).

Les estacions disponibles són els punts grocs i vermells al mapa.

Posi el ratolí al punt desitjat per veure el nom de l'estació.

Feu clic per veure les observacions i els pronòstics meteorològics.

Per canviar el mapa: feu clic els botons verds amb una creu de color negre per apropar; al botó verd amb un guió per allunyar la imatge; o en les fletxes verdes per a mapes adjacents.


METAR-TAF: